DATE METEO

IERI
Time Temp. Dewp. Hum. Wind dir Wind speed Wind gust Bar. 1h Prec. 24h Prec.
00:05 7.9 7.9 100 35 0.6 1.1 1013.7 0.0000 0.0000
00:15 7.9 7.9 100 31 0.6 1.4 1013.6 0.0000 0.0000
00:25 7.9 7.9 100 36 0.8 1.4 1013.8 0.0000 0.0000
00:35 7.9 7.9 100 30 0.6 1.1 1013.7 0.0000 0.0000
00:45 7.9 7.9 100 32 0.8 1.4 1013.6 0.0000 0.0000
00:55 7.9 7.9 100 14 0.8 1.4 1013.5 0.0000 0.0000
01:05 7.8 7.8 100 15 0.8 1.4 1013.3 0.0000 0.0000
01:15 7.8 7.8 100 28 0.8 1.4 1013.4 0.0000 0.0000
01:26 7.8 7.8 100 27 0.8 1.1 1013.4 0.0000 0.0000
01:36 7.8 7.8 100 29 0.8 1.1 1013.3 0.0000 0.0000
01:45 7.8 7.8 100 38 0.8 1.4 1013.2 0.0000 0.0000
01:55 7.8 7.8 100 25 0.8 1.4 1013.3 0.0000 0.0000
02:06 7.8 7.8 100 27 0.6 1.1 1013.4 0.0000 0.0000
02:16 7.8 7.8 100 6 0.8 1.9 1013.6 0.0000 0.0000
02:25 7.8 7.8 100 25 0.8 1.7 1013.3 0.1010 0.1000
02:36 7.7 7.7 100 33 0.8 1.7 1013.3 0.2020 0.2000
02:45 7.6 7.6 100 33 0.8 1.7 1013.4 0.3030 0.3000
02:55 7.6 7.6 100 31 1.1 1.9 1013.1 0.4040 0.4000
03:05 7.5 7.5 100 40 0.6 1.4 1013.2 0.7070 0.7000
03:15 7.5 7.5 100 34 0.8 1.7 1013.1 0.9090 0.9000
03:25 7.5 7.5 100 28 0.6 1.1 1013 1.1110 1.2000
03:35 7.5 7.5 100 9 0.6 0.8 1012.8 1.1110 1.3000
03:46 7.5 7.5 100 25 0.6 1.1 1012.7 1.0100 1.3000
03:55 7.5 7.5 100 23 0.8 1.4 1012.8 0.9090 1.3000
04:05 7.5 7.5 100 39 0.6 1.1 1012.5 0.6060 1.3000
04:16 7.5 7.5 100 29 0.8 1.4 1012.6 0.5050 1.4000
04:26 7.5 7.5 100 43 0.8 1.4 1012.5 0.2020 1.4000
04:36 7.5 7.5 100 39 1.1 1.7 1012.6 0.2020 1.5000
04:45 7.5 7.5 100 28 1.1 1.9 1012.4 0.2020 1.5000
04:56 7.4 7.4 100 38 1.1 1.9 1012.6 0.2020 1.5000
05:06 7.4 7.4 100 35 0.8 1.4 1012.5 0.2020 1.5000
05:16 7.4 7.4 100 36 1.1 1.7 1012.3 0.1010 1.5000
05:26 7.3 7.3 100 33 0.8 1.4 1012.3 0.1010 1.5000
05:36 7.3 7.3 100 25 0.8 1.4 1012.3 0.0000 1.5000
05:46 7.3 7.3 100 34 0.8 1.4 1012.3 0.0000 1.5000
05:56 7.3 7.3 100 18 0.8 1.4 1012.4 0.0000 1.5000
06:07 7.3 7.3 100 21 0.8 1.4 1012.5 0.0000 1.5000
06:16 7.3 7.3 100 14 0.8 1.4 1012.5 0.0000 1.5000
06:26 7.3 7.3 100 17 0.8 1.4 1012.5 0.0000 1.5000
06:37 7.2 7.2 100 25 0.8 1.7 1012.5 0.0000 1.5000
06:47 7.2 7.2 100 32 0.8 1.7 1012.4 0.0000 1.5000
06:57 7.2 7.2 100 35 0.8 1.4 1012.4 0.0000 1.5000
07:06 7.3 7.3 100 28 0.8 1.7 1012.4 0.0000 1.5000
07:17 7.2 7.2 100 37 0.8 1.4 1012.5 0.0000 1.5000
07:27 7.3 7.3 100 29 0.8 1.4 1012.5 0.0000 1.5000
07:37 7.3 7.3 100 37 0.8 1.1 1012.5 0.0000 1.5000
07:47 7.3 7.3 100 38 0.6 1.1 1012.5 0.0000 1.5000
07:57 7.4 7.4 100 28 0.8 1.4 1012.5 0.0000 1.5000
08:07 7.4 7.4 100 32 0.8 1.1 1012.5 0.0000 1.5000
08:17 7.5 7.5 100 24 0.8 1.4 1012.8 0.0000 1.5000
08:28 7.5 7.5 100 23 0.6 1.1 1012.7 0.0000 1.5000
08:37 7.6 7.6 100 29 0.8 1.1 1012.8 0.0000 1.5000
08:47 7.6 7.6 100 29 0.8 1.4 1012.9 0.0000 1.5000
08:58 7.7 7.7 100 35 0.8 1.7 1013 0.0000 1.5000
09:08 7.7 7.7 100 27 0.8 1.7 1013 0.0000 1.5000
09:17 7.8 7.8 100 36 0.8 1.4 1013 0.0000 1.5000
09:27 7.9 7.9 100 27 0.8 1.1 1013.1 0.0000 1.5000
09:38 8 8 100 33 0.8 1.4 1013.1 0.0000 1.5000
09:48 8.1 8.1 100 30 0.8 1.4 1013.2 0.0000 1.5000
09:58 8.3 8.3 100 27 0.8 1.4 1013.2 0.0000 1.5000
10:08 8.5 8.5 100 45 0.8 1.7 1013.1 0.0000 1.5000
10:18 8.6 8.6 100 43 0.8 1.1 1013.1 0.0000 1.5000
10:28 8.9 8.9 100 40 0.6 1.4 1012.9 0.0000 1.5000
10:38 9.2 9.2 100 14 0.6 1.1 1012.6 0.0000 1.5000
10:48 9.4 9.4 100 18 0.8 1.4 1012.7 0.0000 1.5000
10:58 9.5 9.5 100 11 0.8 1.4 1012.6 0.0000 1.5000
11:08 9.7 9.7 100 28 0.8 1.7 1012.6 0.0000 1.5000
11:19 9.6 9.6 100 28 1.1 1.9 1012.5 0.0000 1.5000
11:29 9.6 9.6 100 28 1.1 2.2 1012.5 0.0000 1.5000
11:38 9.6 9.6 100 29 1.1 2.2 1012.4 0.0000 1.5000
11:48 9.7 9.7 100 22 0.6 1.4 1012.4 0.0000 1.5000
11:59 9.5 9.5 100 20 0.8 1.1 1012.2 0.0000 1.5000
12:09 9.7 9.7 100 27 0.8 1.4 1012.3 0.0000 1.5000
12:18 9.7 9.7 100 26 0.8 1.9 1012.1 0.0000 1.5000
12:29 9.5 9.5 100 16 0.8 1.4 1012.2 0.0000 1.5000
12:39 9.5 9.5 100 34 0.8 1.4 1012 0.0000 1.5000
12:49 9.6 9.6 100 11 0.6 1.1 1011.9 0.0000 1.5000
12:59 9.7 9.7 100 21 0.8 1.1 1011.9 0.0000 1.5000
13:09 9.7 9.7 100 20 0.8 1.4 1012 0.0000 1.5000
13:19 9.7 9.7 100 28 0.8 1.4 1011.9 0.0000 1.5000
13:29 9.7 9.7 100 40 0.6 1.4 1011.8 0.0000 1.5000
13:40 9.8 9.8 100 21 0.8 1.1 1011.7 0.0000 1.5000
13:49 9.7 9.7 100 24 0.8 1.4 1011.8 0.0000 1.5000
13:59 9.7 9.7 100 25 0.6 1.1 1011.7 0.0000 1.5000
14:09 9.8 9.8 100 19 0.8 1.4 1011.8 0.0000 1.5000
14:20 9.8 9.8 100 32 0.8 1.4 1011.9 0.0000 1.5000
14:30 9.8 9.8 100 25 0.8 1.7 1011.7 0.0000 1.5000
14:39 9.9 9.9 100 33 0.8 1.4 1011.7 0.0000 1.5000
14:50 10.1 10.1 100 30 0.6 1.1 1011.7 0.1010 1.6000
15:00 10.1 10.1 100 26 0.8 1.4 1011.7 0.2020 1.7000
15:10 10.1 10.1 100 45 0.8 1.4 1011.9 0.2020 1.7000
15:20 10.1 10.1 100 23 0.8 1.4 1012.1 0.2020 1.7000
15:30 10 10 100 39 0.8 1.4 1012 0.2020 1.7000
15:40 10 10 100 24 0.6 1.1 1011.8 0.2020 1.7000
15:50 9.9 9.9 100 0 0.6 1.4 1011.9 0.0000 1.7000
16:01 9.8 9.8 100 24 0.6 1.1 1011.9 0.0000 1.7000
16:10 9.7 9.7 100 45 0.6 1.1 1012 0.0000 1.7000
16:20 9.6 9.6 100 32 0.6 1.1 1012 0.0000 1.7000
16:30 9.5 9.5 100 23 0.6 1.1 1012 0.0000 1.7000
16:41 9.4 9.4 100 38 0.6 1.1 1012.1 0.0000 1.7000
16:51 9.3 9.3 100 46 0.8 1.4 1012.1 0.0000 1.7000
17:00 9.2 9.2 100 30 0.6 1.1 1012 0.0000 1.7000
17:11 9.1 9.1 100 37 0.6 1.1 1012.2 0.0000 1.7000
17:21 9 9 100 34 0.6 1.1 1012.3 0.0000 1.7000
17:31 9 9 100 23 0.6 1.1 1012.3 0.0000 1.7000
17:41 9 9 100 40 0.6 1.1 1012.3 0.0000 1.7000
17:51 9 9 100 45 0.6 1.1 1012.3 0.0000 1.7000
18:01 9 9 100 34 0.6 1.1 1012.4 0.0000 1.7000
18:11 9 9 100 45 0.6 1.1 1012.3 0.0000 1.7000
18:22 9 9 100 42 0.6 1.1 1012.2 0.0000 1.7000
18:31 9 9 100 40 0.6 1.1 1012.3 0.1010 1.8000
18:41 8.9 8.9 100 34 0.6 1.4 1012.3 0.1010 1.8000
18:51 8.9 8.9 100 75 0.8 1.9 1012.2 0.1010 1.8000
19:02 8.9 8.9 100 17 0.6 1.1 1012.1 0.1010 1.8000
19:12 8.9 8.9 100 40 0.8 1.7 1012 0.1010 1.8000
19:21 8.8 8.8 100 34 0.6 1.1 1011.9 0.0000 1.8000
19:32 8.7 8.7 100 35 0.8 1.4 1012 0.0000 1.8000
19:42 8.6 8.6 100 9 0.6 1.1 1011.8 0.0000 1.8000
19:52 8.6 8.6 100 38 0.6 1.1 1012 0.0000 1.8000
20:02 8.5 8.5 100 30 0.6 1.1 1011.9 0.0000 1.8000
20:12 8.4 8.4 100 27 0.6 1.1 1011.8 0.0000 1.8000
20:22 8.4 8.4 100 33 0.6 1.1 1011.8 0.0000 1.8000
20:32 8.3 8.3 100 42 0.6 1.1 1011.7 0.0000 1.8000
20:43 8.3 8.3 100 255 0.8 1.4 1011.7 0.0000 1.8000
20:52 8.3 8.3 100 27 0.6 1.1 1011.9 0.0000 1.8000
21:02 8.2 8.2 100 42 0.6 1.1 1011.9 0.0000 1.8000
21:12 8.2 8.2 100 356 0.6 1.1 1011.7 0.0000 1.8000
21:23 8.1 8.1 100 23 0.6 1.1 1011.4 0.0000 1.8000
21:33 8.1 8.1 100 270 0.6 1.4 1011.5 0.0000 1.8000
21:42 8.2 8.2 100 49 0.6 1.1 1011.4 0.0000 1.8000
21:53 8.2 8.2 100 135 0.6 1.1 1011.4 0.0000 1.8000
22:03 8.2 8.2 100 55 0.6 1.1 1011.3 0.0000 1.8000
22:13 8.2 8.2 100 50 0.6 1.1 1011.4 0.0000 1.8000
22:22 8.2 8.2 100 32 0.6 1.1 1011.3 0.0000 1.8000
22:33 8.3 8.3 100 45 0.6 0.8 1011.1 0.0000 1.8000
22:43 8.2 8.2 100 5 0.6 1.1 1011 0.0000 1.8000
22:53 8.2 8.2 100 270 0.6 1.1 1010.9 0.0000 1.8000
23:03 8.2 8.2 100 238 0.6 1.1 1010.8 0.0000 1.8000
23:13 8.1 8.1 100 250 0.6 1.1 1010.7 0.0000 1.8000
23:23 8.1 8.1 100 293 0.6 1.1 1010.6 0.0000 1.8000
23:33 8.1 8.1 100 288 0.6 1.1 1010.5 0.0000 1.8000
23:44 8.1 8.1 100 35 0.8 1.4 1010.4 0.0000 1.8000
23:53 8 8 100 49 0.6 1.1 1010.4 0.0000 1.8000

STATISTICILE ZILEI

2022-12-08
TEMPERATURA
MEDIA
8.4
MAXIM
10.1
14:50
MINIM
7.2
06:37
PRESIUNEA
MEDIA
1012.3
MAXIM
1013.8
00:25
MINIM
1010.4
23:44
PUNCTUL DE ROUĂ
MEDIA
8.4
MAXIM
10.1
14:50
MINIM
7.2
06:37
UMIDITATEA
MEDIA
100
MAXIM
100
00:05
MINIM
100
00:05
WIND SPEED
MEDIA
0.7
MAXIM
1.1
02:55
WIND GUST
MEDIA
1.3
MAXIM
2.2
11:29
WIND DIRECTION
PREVAILING
NE
76.9%
N
16.8
NE
76.9
E
0.7
SE
0.7
S
0.0
SW
0.7
W
3.5
NW
0.7
PRECIPITATION
RAIN HOUR
1.1
RAIN DAY
1.8
TEMPERATURA (°C)
MINIM
7.2
MAXIM
10.1
MEDIA
8.4
PRESIUNEA (hpa)
MINIM
1010.4
MAXIM
1013.8
MEDIA
1012.3
STATIA METEO